Darstellungsparameter: Aktuell verwendete Einstellungen:
Skalierung der Graphiken ... ?
xyx+y,   Skalierungsfaktor:      Skalierung: Modus: x, Faktor: 1
Darstellungszeitraum ... ?
Vom - - bis: - -   Zeitraum: 05.10.2020 - 05.10.2020
Min/Max/Avg-Anzeige ... ?
Zeige MMA aktuell
Zeige MMA Monat
Zeige MMA alles
Zeige --A aktuell
Zeige --A Monat
Zeige --A alles
Keine MMA-Anzeige
MMA:
Average (ber die Originaldaten)
MMA-Basis: 05.10.2020 - 05.10.2020
Quicknavigation für Darstellung... ?
Tage:      1T, 2T, 3T, 5T -1T -2T -3T -5T +1T +2T +3T +5T
Wochen: 1W, 2W, 3W -1W -2W -3W +1W +2W +3W
Monate: 1M, 3M, 6M -1M -3M -6M +1M +3M +6M
Jahre:    1J, 3J, 5J, 10J -1J -3J -5J -10J +1J +3J +5J +10J
Nutze für die Darstellung ... ?
Originaldaten oder Mittelwerte auf ...
Stundenbasis Tagesbasis Wochenbasis
Monatsbasis Jahresbasis      Datenbasis: Original-Daten
Darstellen als:
Statistik (Auto) Statistik J:M      Darstellung:
Zur Graphik,    zurück zur Übersicht aller Sensoren.
 
Tabellarische Datenbersicht: ?
 
Sensor: Nr:Datum:Temp:Abs-Feuchte:Windchill:Wind:
Aussen-T/F 1 05-10-2020 00:00:00 8.7 C 8.22 g/m*3 8.7 C 0 km/h
2 05-10-2020 00:05:00 8.7 C 8.22 g/m*3 8.7 C 0 km/h
3 05-10-2020 00:10:00 8.7 C 8.22 g/m*3 8.7 C 0 km/h
4 05-10-2020 00:15:00 8.6 C 8.16 g/m*3 8.6 C 3.2 km/h
5 05-10-2020 00:20:00 8.6 C 8.16 g/m*3 8.6 C 3.2 km/h
6 05-10-2020 00:25:00 8.4 C 8.06 g/m*3 8.4 C 0 km/h
7 05-10-2020 00:30:00 8.4 C 8.06 g/m*3 7.11 C 8.1 km/h
8 05-10-2020 00:35:00 8.7 C 8.3 g/m*3 7.46 C 8.1 km/h
9 05-10-2020 00:40:00 8.8 C 8.36 g/m*3 7.98 C 6.4 km/h
10 05-10-2020 00:45:00 8.7 C 8.3 g/m*3 8.7 C 3.2 km/h
11 05-10-2020 00:50:00 8.6 C 8.25 g/m*3 8.6 C 3.2 km/h
12 05-10-2020 00:55:00 8.5 C 8.11 g/m*3 8.5 C 3.2 km/h
13 05-10-2020 01:00:00 8.4 C 8.06 g/m*3 8.4 C 0 km/h
14 05-10-2020 01:05:00 8.3 C 8.01 g/m*3 8.3 C 3.2 km/h
15 05-10-2020 01:10:00 8.3 C 8.01 g/m*3 8.3 C 1.6 km/h
16 05-10-2020 01:15:00 8.3 C 8.09 g/m*3 8.3 C 4.8 km/h
17 05-10-2020 01:20:00 8.2 C 8.04 g/m*3 8.2 C 1.6 km/h
18 05-10-2020 01:25:00 8.3 C 8.09 g/m*3 8.3 C 1.6 km/h
19 05-10-2020 01:30:00 8.5 C 8.2 g/m*3 8.5 C 1.6 km/h
20 05-10-2020 01:35:00 8.7 C 8.3 g/m*3 8.7 C 4.8 km/h
21 05-10-2020 01:40:00 8.8 C 8.36 g/m*3 8.8 C 0 km/h
22 05-10-2020 01:45:00 9 C 8.55 g/m*3 9 C 1.6 km/h
23 05-10-2020 01:50:00 9.1 C 8.52 g/m*3 9.1 C 4.8 km/h
24 05-10-2020 01:55:00 9.2 C 8.57 g/m*3 9.2 C 4.8 km/h
25 05-10-2020 02:00:00 9.1 C 8.52 g/m*3 8.33 C 6.4 km/h
Sensor: Nr:Datum:Temp:Abs-Feuchte:Windchill:Wind:
Aussen-T/F 26 05-10-2020 02:05:00 8.9 C 8.41 g/m*3 8.1 C 6.4 km/h
27 05-10-2020 02:10:00 9 C 8.46 g/m*3 9 C 3.2 km/h
28 05-10-2020 02:15:00 9.1 C 8.52 g/m*3 9.1 C 4.8 km/h
29 05-10-2020 02:20:00 9.2 C 8.57 g/m*3 9.2 C 0 km/h
30 05-10-2020 02:25:00 9.2 C 8.57 g/m*3 9.2 C 3.2 km/h
31 05-10-2020 02:30:00 9.2 C 8.57 g/m*3 9.2 C 4.8 km/h
32 05-10-2020 02:35:00 9.2 C 8.57 g/m*3 9.2 C 4.8 km/h
33 05-10-2020 02:40:00 9.2 C 8.57 g/m*3 9.2 C 0 km/h
34 05-10-2020 02:45:00 9.3 C 8.72 g/m*3 9.3 C 0 km/h
35 05-10-2020 02:50:00 9.3 C 8.72 g/m*3 9.3 C 0 km/h
36 05-10-2020 02:55:00 9.4 C 8.77 g/m*3 9.4 C 3.2 km/h
37 05-10-2020 03:00:00 9.5 C 8.83 g/m*3 9.5 C 1.6 km/h
38 05-10-2020 03:05:00 9.5 C 8.83 g/m*3 9.5 C 3.2 km/h
39 05-10-2020 03:10:00 9.4 C 8.77 g/m*3 9.4 C 3.2 km/h
40 05-10-2020 03:15:00 9.4 C 8.68 g/m*3 9.4 C 4.8 km/h
41 05-10-2020 03:20:00 9.3 C 8.72 g/m*3 9.3 C 3.2 km/h
42 05-10-2020 03:25:00 9.2 C 8.57 g/m*3 9.2 C 0 km/h
43 05-10-2020 03:30:00 9.1 C 8.52 g/m*3 9.1 C 0 km/h
44 05-10-2020 03:35:00 8.9 C 8.41 g/m*3 8.9 C 0 km/h
45 05-10-2020 03:40:00 8.8 C 8.36 g/m*3 8.8 C 0 km/h
46 05-10-2020 03:45:00 8.8 C 8.36 g/m*3 8.8 C 0 km/h
47 05-10-2020 03:50:00 8.8 C 8.36 g/m*3 8.8 C 0 km/h
48 05-10-2020 03:55:00 8.7 C 8.3 g/m*3 8.7 C 0 km/h
49 05-10-2020 04:00:00 8.7 C 8.3 g/m*3 8.7 C 0 km/h
50 05-10-2020 04:05:00 8.8 C 8.36 g/m*3 8.8 C 4.8 km/h
Sensor: Nr:Datum:Temp:Abs-Feuchte:Windchill:Wind:
Aussen-T/F 51 05-10-2020 04:10:00 8.8 C 8.44 g/m*3 8.8 C 3.2 km/h
52 05-10-2020 04:15:00 8.8 C 8.36 g/m*3 8.8 C 3.2 km/h
53 05-10-2020 04:20:00 8.9 C 8.41 g/m*3 8.9 C 1.6 km/h
54 05-10-2020 04:25:00 8.9 C 8.41 g/m*3 8.9 C 3.2 km/h
55 05-10-2020 04:30:00 9 C 8.55 g/m*3 9 C 3.2 km/h
56 05-10-2020 04:35:00 9.1 C 8.61 g/m*3 9.1 C 3.2 km/h
57 05-10-2020 04:40:00 9.1 C 8.61 g/m*3 9.1 C 4.8 km/h
58 05-10-2020 04:45:00 9.1 C 8.61 g/m*3 9.1 C 1.6 km/h
59 05-10-2020 04:50:00 9.1 C 8.61 g/m*3 9.1 C 0 km/h
60 05-10-2020 04:55:00 9 C 8.46 g/m*3 9 C 3.2 km/h
61 05-10-2020 05:00:00 8.9 C 8.41 g/m*3 8.9 C 3.2 km/h
62 05-10-2020 05:05:00 8.9 C 8.41 g/m*3 8.9 C 4.8 km/h
63 05-10-2020 05:10:00 8.8 C 8.36 g/m*3 8.8 C 4.8 km/h
64 05-10-2020 05:15:00 8.7 C 8.39 g/m*3 8.7 C 3.2 km/h
65 05-10-2020 05:20:00 8.7 C 8.39 g/m*3 8.7 C 0 km/h
66 05-10-2020 05:25:00 8.6 C 8.25 g/m*3 8.6 C 3.2 km/h
67 05-10-2020 05:30:00 8.5 C 8.2 g/m*3 8.5 C 3.2 km/h
68 05-10-2020 05:35:00 8.4 C 8.14 g/m*3 8.4 C 4.8 km/h
69 05-10-2020 05:40:00 8.4 C 8.14 g/m*3 8.4 C 3.2 km/h
70 05-10-2020 05:45:00 8.4 C 8.23 g/m*3 8.4 C 4.8 km/h
71 05-10-2020 05:50:00 8.4 C 8.23 g/m*3 8.4 C 3.2 km/h
72 05-10-2020 05:55:00 8.4 C 8.23 g/m*3 8.4 C 1.6 km/h
73 05-10-2020 06:00:00 8.3 C 8.18 g/m*3 8.3 C 0 km/h
74 05-10-2020 06:05:00 8.3 C 8.18 g/m*3 8.3 C 4.8 km/h
75 05-10-2020 06:10:00 8.4 C 8.23 g/m*3 8.4 C 3.2 km/h
Sensor: Nr:Datum:Temp:Abs-Feuchte:Windchill:Wind:
Aussen-T/F 76 05-10-2020 06:15:00 8.4 C 8.23 g/m*3 8.4 C 3.2 km/h
77 05-10-2020 06:20:00 8.6 C 8.34 g/m*3 8.6 C 3.2 km/h
78 05-10-2020 06:25:00 8.6 C 8.34 g/m*3 8.6 C 3.2 km/h
79 05-10-2020 06:30:00 8.6 C 8.34 g/m*3 8.6 C 4.8 km/h
80 05-10-2020 06:35:00 8.6 C 8.34 g/m*3 8.6 C 4.8 km/h
81 05-10-2020 06:40:00 8.6 C 8.34 g/m*3 8.6 C 4.8 km/h
82 05-10-2020 06:45:00 8.6 C 8.34 g/m*3 8.6 C 0 km/h
83 05-10-2020 06:50:00 8.6 C 8.34 g/m*3 8.6 C 3.2 km/h
84 05-10-2020 06:55:00 8.6 C 8.34 g/m*3 8.6 C 4.8 km/h
85 05-10-2020 07:00:00 8.6 C 8.34 g/m*3 8.6 C 4.8 km/h
86 05-10-2020 07:05:00 8.6 C 8.34 g/m*3 8.6 C 1.6 km/h
87 05-10-2020 07:10:00 8.7 C 8.39 g/m*3 8.7 C 3.2 km/h
88 05-10-2020 07:15:00 8.7 C 8.39 g/m*3 8.7 C 4.8 km/h
89 05-10-2020 07:20:00 8.8 C 8.44 g/m*3 8.8 C 0 km/h
90 05-10-2020 07:25:00 8.8 C 8.44 g/m*3 8.8 C 0 km/h
91 05-10-2020 07:30:00 8.8 C 8.44 g/m*3 8.8 C 0 km/h
92 05-10-2020 07:35:00 8.9 C 8.5 g/m*3 8.9 C 0 km/h
93 05-10-2020 07:40:00 8.9 C 8.5 g/m*3 8.9 C 0 km/h
94 05-10-2020 07:45:00 8.8 C 8.44 g/m*3 8.8 C 0 km/h
95 05-10-2020 07:50:00 8.8 C 8.44 g/m*3 8.8 C 4.8 km/h
96 05-10-2020 07:55:00 8.8 C 8.44 g/m*3 8.8 C 3.2 km/h
97 05-10-2020 08:00:00 8.9 C 8.5 g/m*3 8.9 C 4.8 km/h
98 05-10-2020 08:05:00 9 C 8.55 g/m*3 9 C 4.8 km/h
99 05-10-2020 08:10:00 9.1 C 8.61 g/m*3 9.1 C 3.2 km/h
100 05-10-2020 08:15:00 9.1 C 8.61 g/m*3 9.1 C 3.2 km/h
Sensor: Nr:Datum:Temp:Abs-Feuchte:Windchill:Wind:
Aussen-T/F 101 05-10-2020 08:20:00 9.1 C 8.61 g/m*3 9.1 C 3.2 km/h
102 05-10-2020 08:25:00 9.2 C 8.66 g/m*3 9.2 C 3.2 km/h
103 05-10-2020 08:30:00 9.2 C 8.66 g/m*3 9.2 C 1.6 km/h
104 05-10-2020 08:35:00 9.3 C 8.72 g/m*3 9.3 C 0 km/h
105 05-10-2020 08:40:00 9.3 C 8.72 g/m*3 9.3 C 4.8 km/h
106 05-10-2020 08:45:00 9.4 C 8.77 g/m*3 9.4 C 0 km/h
107 05-10-2020 08:50:00 9.6 C 8.89 g/m*3 9.6 C 3.2 km/h
108 05-10-2020 08:55:00 9.6 C 8.89 g/m*3 9.6 C 1.6 km/h
109 05-10-2020 09:00:00 9.7 C 8.94 g/m*3 9.7 C 1.6 km/h
110 05-10-2020 09:05:00 9.8 C 9 g/m*3 9.8 C 1.6 km/h
111 05-10-2020 09:10:00 9.9 C 9.06 g/m*3 9.9 C 0 km/h
112 05-10-2020 09:15:00 10 C 9.11 g/m*3 10 C 1.6 km/h
113 05-10-2020 09:20:00 10.1 C 9.17 g/m*3 10.1 C 4.8 km/h
114 05-10-2020 09:25:00 10.2 C 9.23 g/m*3 10.2 C 1.6 km/h
115 05-10-2020 09:30:00 10.3 C 9.29 g/m*3 10.3 C 4.8 km/h
116 05-10-2020 09:35:00 10.3 C 9.29 g/m*3 10.3 C 1.6 km/h
117 05-10-2020 09:40:00 10.3 C 9.29 g/m*3 10.3 C 3.2 km/h
118 05-10-2020 09:45:00 10.3 C 9.29 g/m*3 10.3 C 3.2 km/h
119 05-10-2020 09:50:00 10.3 C 9.29 g/m*3 10.3 C 4.8 km/h
120 05-10-2020 09:55:00 10.3 C 9.29 g/m*3 9.72 C 6.4 km/h
121 05-10-2020 10:00:00 10.2 C 9.23 g/m*3 10.2 C 1.6 km/h
122 05-10-2020 10:05:00 10.1 C 9.17 g/m*3 8.8 C 9.7 km/h
123 05-10-2020 10:10:00 10.1 C 9.17 g/m*3 10.1 C 4.8 km/h
124 05-10-2020 10:15:00 10.2 C 9.14 g/m*3 10.2 C 1.6 km/h
125 05-10-2020 10:20:00 10.2 C 9.14 g/m*3 10.2 C 3.2 km/h
Sensor: Nr:Datum:Temp:Abs-Feuchte:Windchill:Wind:
Aussen-T/F 126 05-10-2020 10:25:00 10.2 C 9.14 g/m*3 10.2 C 1.6 km/h
127 05-10-2020 10:30:00 10.3 C 9.19 g/m*3 10.3 C 3.2 km/h
128 05-10-2020 10:35:00 10.3 C 9.19 g/m*3 9.72 C 6.4 km/h
129 05-10-2020 10:40:00 10.3 C 9.1 g/m*3 10.3 C 4.8 km/h
130 05-10-2020 10:45:00 10.4 C 9.16 g/m*3 10.4 C 3.2 km/h
131 05-10-2020 10:50:00 10.4 C 9.06 g/m*3 9.16 C 9.7 km/h
132 05-10-2020 10:55:00 10.6 C 9.08 g/m*3 9.14 C 11.3 km/h
133 05-10-2020 11:00:00 10.7 C 9.13 g/m*3 9.81 C 8.1 km/h
134 05-10-2020 11:05:00 10.8 C 9.19 g/m*3 10.8 C 1.6 km/h
135 05-10-2020 11:10:00 11 C 9.11 g/m*3 9.63 C 11.3 km/h
136 05-10-2020 11:15:00 11.2 C 9.22 g/m*3 11.2 C 4.8 km/h
137 05-10-2020 11:20:00 11.3 C 9.08 g/m*3 11.3 C 8.1 km/h
138 05-10-2020 11:25:00 11.5 C 9.19 g/m*3 11.5 C 9.7 km/h
139 05-10-2020 11:30:00 11.7 C 8.99 g/m*3 11.7 C 8.1 km/h
140 05-10-2020 11:35:00 11.9 C 9.11 g/m*3 11.9 C 9.7 km/h
141 05-10-2020 11:40:00 12.1 C 9.12 g/m*3 12.1 C 14.5 km/h
142 05-10-2020 11:45:00 12.3 C 9.12 g/m*3 12.3 C 14.5 km/h
143 05-10-2020 11:50:00 12.4 C 9.29 g/m*3 12.4 C 6.4 km/h
144 05-10-2020 11:55:00 12.4 C 9.18 g/m*3 12.4 C 4.8 km/h
145 05-10-2020 12:00:00 12.6 C 9.29 g/m*3 12.6 C 9.7 km/h
146 05-10-2020 12:05:00 12.7 C 9.24 g/m*3 12.7 C 12.9 km/h
147 05-10-2020 12:10:00 12.8 C 9.3 g/m*3 12.8 C 16.1 km/h
148 05-10-2020 12:15:00 12.9 C 9.24 g/m*3 12.9 C 4.8 km/h
149 05-10-2020 12:20:00 12.9 C 9.24 g/m*3 12.9 C 9.7 km/h
150 05-10-2020 12:25:00 12.9 C 9.24 g/m*3 12.9 C 8.1 km/h
Sensor: Nr:Datum:Temp:Abs-Feuchte:Windchill:Wind:
Aussen-T/F 151 05-10-2020 12:30:00 12.9 C 9.24 g/m*3 12.9 C 4.8 km/h
152 05-10-2020 12:35:00 12.9 C 9.13 g/m*3 12.9 C 9.7 km/h
153 05-10-2020 12:40:00 13 C 9.3 g/m*3 13 C 6.4 km/h
154 05-10-2020 12:45:00 13.1 C 9.36 g/m*3 13.1 C 8.1 km/h
155 05-10-2020 12:50:00 13.1 C 9.36 g/m*3 13.1 C 4.8 km/h
156 05-10-2020 12:55:00 13.1 C 9.36 g/m*3 13.1 C 4.8 km/h
157 05-10-2020 13:00:00 13.1 C 9.36 g/m*3 13.1 C 9.7 km/h
158 05-10-2020 13:05:00 12.9 C 9.35 g/m*3 12.9 C 11.3 km/h
159 05-10-2020 13:10:00 12.9 C 9.47 g/m*3 12.9 C 0 km/h
160 05-10-2020 13:15:00 12.9 C 9.58 g/m*3 12.9 C 4.8 km/h
161 05-10-2020 13:20:00 12.9 C 9.58 g/m*3 12.9 C 3.2 km/h
162 05-10-2020 13:25:00 13 C 9.53 g/m*3 13 C 11.3 km/h
163 05-10-2020 13:30:00 12.9 C 9.35 g/m*3 12.9 C 12.9 km/h
164 05-10-2020 13:35:00 12.9 C 9.35 g/m*3 12.9 C 3.2 km/h
165 05-10-2020 13:40:00 12.9 C 9.58 g/m*3 12.9 C 6.4 km/h
166 05-10-2020 13:45:00 12.8 C 9.63 g/m*3 12.8 C 3.2 km/h
167 05-10-2020 13:50:00 12.7 C 9.57 g/m*3 12.7 C 4.8 km/h
168 05-10-2020 13:55:00 12.6 C 9.51 g/m*3 12.6 C 3.2 km/h
169 05-10-2020 14:00:00 12.5 C 9.57 g/m*3 12.5 C 1.6 km/h
170 05-10-2020 14:05:00 12.6 C 9.85 g/m*3 12.6 C 0 km/h
171 05-10-2020 14:10:00 12.6 C 9.96 g/m*3 12.6 C 0 km/h
172 05-10-2020 14:15:00 12.7 C 10.02 g/m*3 12.7 C 1.6 km/h
173 05-10-2020 14:20:00 12.8 C 10.08 g/m*3 12.8 C 1.6 km/h
174 05-10-2020 14:25:00 12.9 C 10.14 g/m*3 12.9 C 4.8 km/h
175 05-10-2020 14:30:00 13.2 C 10.33 g/m*3 13.2 C 3.2 km/h
Sensor: Nr:Datum:Temp:Abs-Feuchte:Windchill:Wind:
Aussen-T/F 176 05-10-2020 14:35:00 13.2 C 9.99 g/m*3 13.2 C 12.9 km/h
177 05-10-2020 14:40:00 13.4 C 10.23 g/m*3 13.4 C 3.2 km/h
178 05-10-2020 14:45:00 13.6 C 10.24 g/m*3 13.6 C 4.8 km/h
179 05-10-2020 14:50:00 13.8 C 10.25 g/m*3 13.8 C 9.7 km/h
180 05-10-2020 14:55:00 13.9 C 10.19 g/m*3 13.9 C 8.1 km/h
181 05-10-2020 15:00:00 13.9 C 10.19 g/m*3 13.9 C 8.1 km/h
182 05-10-2020 15:05:00 13.9 C 10.19 g/m*3 13.9 C 14.5 km/h
183 05-10-2020 15:10:00 14 C 10.25 g/m*3 14 C 3.2 km/h
184 05-10-2020 15:15:00 14.1 C 10.32 g/m*3 14.1 C 6.4 km/h
185 05-10-2020 15:20:00 14 C 10.13 g/m*3 14 C 8.1 km/h
186 05-10-2020 15:25:00 14 C 10.25 g/m*3 14 C 1.6 km/h
187 05-10-2020 15:30:00 14.1 C 10.07 g/m*3 14.1 C 9.7 km/h
188 05-10-2020 15:35:00 14 C 10.01 g/m*3 14 C 11.3 km/h
189 05-10-2020 15:40:00 14 C 10.01 g/m*3 14 C 11.3 km/h
190 05-10-2020 15:45:00 14.1 C 10.07 g/m*3 14.1 C 12.9 km/h
191 05-10-2020 15:50:00 14.2 C 10.01 g/m*3 14.2 C 8.1 km/h
192 05-10-2020 15:55:00 14.2 C 10.01 g/m*3 14.2 C 19.3 km/h
193 05-10-2020 16:00:00 14.2 C 10.01 g/m*3 14.2 C 8.1 km/h
194 05-10-2020 16:05:00 14.2 C 10.01 g/m*3 14.2 C 8.1 km/h
195 05-10-2020 16:10:00 14.2 C 10.01 g/m*3 14.2 C 14.5 km/h
196 05-10-2020 16:15:00 14.1 C 9.95 g/m*3 14.1 C 9.7 km/h
197 05-10-2020 16:20:00 14.1 C 9.83 g/m*3 14.1 C 14.5 km/h
198 05-10-2020 16:25:00 14.3 C 10.07 g/m*3 14.3 C 9.7 km/h
199 05-10-2020 16:30:00 14.4 C 10.14 g/m*3 14.4 C 9.7 km/h
200 05-10-2020 16:35:00 14.6 C 10.14 g/m*3 14.6 C 6.4 km/h
Sensor: Nr:Datum:Temp:Abs-Feuchte:Windchill:Wind:
Aussen-T/F 201 05-10-2020 16:40:00 14.5 C 9.95 g/m*3 14.5 C 11.3 km/h
202 05-10-2020 16:45:00 14.4 C 9.89 g/m*3 14.4 C 9.7 km/h
203 05-10-2020 16:50:00 14.2 C 9.77 g/m*3 14.2 C 11.3 km/h
204 05-10-2020 16:55:00 14.1 C 9.83 g/m*3 14.1 C 8.1 km/h
205 05-10-2020 17:00:00 13.9 C 9.71 g/m*3 13.9 C 11.3 km/h
206 05-10-2020 17:05:00 13.8 C 9.65 g/m*3 13.8 C 12.9 km/h
207 05-10-2020 17:10:00 13.7 C 9.71 g/m*3 13.7 C 9.7 km/h
208 05-10-2020 17:15:00 13.7 C 9.83 g/m*3 13.7 C 6.4 km/h
209 05-10-2020 17:20:00 13.6 C 9.77 g/m*3 13.6 C 11.3 km/h
210 05-10-2020 17:25:00 13.6 C 9.77 g/m*3 13.6 C 14.5 km/h
211 05-10-2020 17:30:00 13.6 C 9.77 g/m*3 13.6 C 12.9 km/h
212 05-10-2020 17:35:00 13.6 C 9.65 g/m*3 13.6 C 8.1 km/h
213 05-10-2020 17:40:00 13.6 C 9.65 g/m*3 13.6 C 8.1 km/h
214 05-10-2020 17:45:00 13.6 C 9.65 g/m*3 13.6 C 16.1 km/h
215 05-10-2020 17:50:00 13.6 C 9.77 g/m*3 13.6 C 6.4 km/h
216 05-10-2020 17:55:00 13.6 C 9.89 g/m*3 13.6 C 4.8 km/h
217 05-10-2020 18:00:00 13.6 C 9.77 g/m*3 13.6 C 3.2 km/h
218 05-10-2020 18:05:00 13.5 C 9.71 g/m*3 13.5 C 4.8 km/h
219 05-10-2020 18:10:00 13.5 C 9.71 g/m*3 13.5 C 0 km/h
220 05-10-2020 18:15:00 13.4 C 9.76 g/m*3 13.4 C 1.6 km/h
221 05-10-2020 18:20:00 13.4 C 9.76 g/m*3 13.4 C 4.8 km/h
222 05-10-2020 18:25:00 13.4 C 9.76 g/m*3 13.4 C 4.8 km/h
223 05-10-2020 18:30:00 13.3 C 9.7 g/m*3 13.3 C 1.6 km/h
224 05-10-2020 18:35:00 13.3 C 9.7 g/m*3 13.3 C 8.1 km/h
225 05-10-2020 18:40:00 13.3 C 9.82 g/m*3 13.3 C 0 km/h
Sensor: Nr:Datum:Temp:Abs-Feuchte:Windchill:Wind:
Aussen-T/F 226 05-10-2020 18:45:00 13.3 C 9.7 g/m*3 13.3 C 3.2 km/h
227 05-10-2020 18:50:00 13.3 C 9.82 g/m*3 13.3 C 1.6 km/h
228 05-10-2020 18:55:00 13.2 C 9.76 g/m*3 13.2 C 6.4 km/h
229 05-10-2020 19:00:00 13.2 C 9.76 g/m*3 13.2 C 3.2 km/h
230 05-10-2020 19:05:00 13.1 C 9.81 g/m*3 13.1 C 0 km/h
231 05-10-2020 19:10:00 13.1 C 9.81 g/m*3 13.1 C 0 km/h
232 05-10-2020 19:15:00 13 C 9.75 g/m*3 13 C 0 km/h
233 05-10-2020 19:20:00 12.9 C 9.69 g/m*3 12.9 C 0 km/h
234 05-10-2020 19:25:00 12.8 C 9.74 g/m*3 12.8 C 3.2 km/h
235 05-10-2020 19:30:00 12.8 C 9.74 g/m*3 12.8 C 3.2 km/h
236 05-10-2020 19:35:00 12.7 C 9.68 g/m*3 12.7 C 0 km/h
237 05-10-2020 19:40:00 12.7 C 9.8 g/m*3 12.7 C 0 km/h
238 05-10-2020 19:45:00 12.6 C 9.74 g/m*3 12.6 C 3.2 km/h
239 05-10-2020 19:50:00 12.6 C 9.85 g/m*3 12.6 C 0 km/h
240 05-10-2020 19:55:00 12.4 C 9.72 g/m*3 12.4 C 4.8 km/h
241 05-10-2020 20:00:00 12.4 C 9.72 g/m*3 12.4 C 8.1 km/h
242 05-10-2020 20:05:00 12.4 C 9.72 g/m*3 12.4 C 3.2 km/h
243 05-10-2020 20:10:00 12.3 C 9.66 g/m*3 12.3 C 1.6 km/h
244 05-10-2020 20:15:00 12.2 C 9.6 g/m*3 12.2 C 3.2 km/h
245 05-10-2020 20:20:00 12.2 C 9.6 g/m*3 12.2 C 0 km/h
246 05-10-2020 20:25:00 12.1 C 9.54 g/m*3 12.1 C 1.6 km/h
247 05-10-2020 20:30:00 12.1 C 9.65 g/m*3 12.1 C 4.8 km/h
248 05-10-2020 20:35:00 12 C 9.59 g/m*3 12 C 6.4 km/h
249 05-10-2020 20:40:00 11.9 C 9.53 g/m*3 11.9 C 1.6 km/h
250 05-10-2020 20:45:00 11.9 C 9.53 g/m*3 11.9 C 1.6 km/h
Sensor: Nr:Datum:Temp:Abs-Feuchte:Windchill:Wind:
Aussen-T/F 251 05-10-2020 20:50:00 11.8 C 9.58 g/m*3 11.8 C 3.2 km/h
252 05-10-2020 20:55:00 11.8 C 9.58 g/m*3 11.8 C 6.4 km/h
253 05-10-2020 21:00:00 11.9 C 9.64 g/m*3 11.9 C 3.2 km/h
254 05-10-2020 21:05:00 11.9 C 9.64 g/m*3 11.9 C 0 km/h
255 05-10-2020 21:10:00 11.9 C 9.64 g/m*3 11.9 C 0 km/h
256 05-10-2020 21:15:00 12 C 9.8 g/m*3 12 C 0 km/h
257 05-10-2020 21:20:00 12 C 9.8 g/m*3 12 C 0 km/h
258 05-10-2020 21:25:00 12 C 9.8 g/m*3 12 C 1.6 km/h
259 05-10-2020 21:30:00 11.9 C 9.74 g/m*3 11.9 C 0 km/h
260 05-10-2020 21:35:00 11.9 C 9.74 g/m*3 11.9 C 0 km/h
261 05-10-2020 21:40:00 11.9 C 9.74 g/m*3 11.9 C 0 km/h
262 05-10-2020 21:45:00 11.9 C 9.74 g/m*3 11.9 C 3.2 km/h
263 05-10-2020 21:50:00 11.8 C 9.79 g/m*3 11.8 C 1.6 km/h
264 05-10-2020 21:55:00 11.8 C 9.79 g/m*3 11.8 C 0 km/h
265 05-10-2020 22:00:00 11.8 C 9.79 g/m*3 11.8 C 1.6 km/h
266 05-10-2020 22:05:00 11.8 C 9.79 g/m*3 11.8 C 0 km/h
267 05-10-2020 22:10:00 11.8 C 9.79 g/m*3 11.8 C 0 km/h
268 05-10-2020 22:15:00 11.8 C 9.79 g/m*3 11.8 C 0 km/h
269 05-10-2020 22:20:00 11.8 C 9.79 g/m*3 11.8 C 0 km/h
270 05-10-2020 22:25:00 11.7 C 9.73 g/m*3 11.7 C 3.2 km/h
271 05-10-2020 22:30:00 11.7 C 9.73 g/m*3 11.7 C 0 km/h
272 05-10-2020 22:35:00 11.6 C 9.67 g/m*3 11.6 C 0 km/h
273 05-10-2020 22:40:00 11.4 C 9.55 g/m*3 11.4 C 0 km/h
274 05-10-2020 22:45:00 11.3 C 9.49 g/m*3 11.3 C 0 km/h
275 05-10-2020 22:50:00 11.2 C 9.53 g/m*3 11.2 C 1.6 km/h
Sensor: Nr:Datum:Temp:Abs-Feuchte:Windchill:Wind:
Aussen-T/F 276 05-10-2020 22:55:00 11.2 C 9.53 g/m*3 11.2 C 0 km/h
277 05-10-2020 23:00:00 11.3 C 9.59 g/m*3 11.3 C 0 km/h
278 05-10-2020 23:05:00 11.3 C 9.69 g/m*3 11.3 C 4.8 km/h
279 05-10-2020 23:10:00 11.4 C 9.75 g/m*3 11.4 C 0 km/h
280 05-10-2020 23:15:00 11.4 C 9.75 g/m*3 11.4 C 0 km/h
281 05-10-2020 23:20:00 11.5 C 9.81 g/m*3 11.5 C 1.6 km/h
282 05-10-2020 23:25:00 11.6 C 9.87 g/m*3 11.6 C 0 km/h
283 05-10-2020 23:30:00 11.6 C 9.87 g/m*3 11.6 C 6.4 km/h
284 05-10-2020 23:35:00 11.6 C 9.87 g/m*3 11.6 C 0 km/h
285 05-10-2020 23:40:00 11.6 C 9.87 g/m*3 11.6 C 1.6 km/h
286 05-10-2020 23:45:00 11.7 C 9.94 g/m*3 11.7 C 1.6 km/h
287 05-10-2020 23:50:00 11.7 C 9.94 g/m*3 11.7 C 1.6 km/h
288 05-10-2020 23:55:00 11.7 C 9.94 g/m*3 11.7 C 0 km/h

Legende:
   Min
   Max


Maximal/Minimal-Werte vom 05.10.2020 - 05.10.2020

Sensor Min Max Avg
Temp
(Aussen-T/F)
8.2 °C
05-10-2020  01:20:00
14.6 °C
05-10-2020  16:35:00
11.07 °C
Abs-Feuchte
(Aussen-T/F)
8.01 g/m*3
05-10-2020  01:05:00
10.33 g/m*3
05-10-2020  14:30:00
9.14 g/m*3
Windchill
(Aussen-T/F)
7.11 C
05-10-2020  00:30:00
14.6 C
05-10-2020  16:35:00
10.99 C

Die Daten stammen von einer Davis Vantage Pro 2 Wetter-Station und werden unter Linux mit der Software wview2wettercgi und aufbereitet. Alle Angaben erfolgen ohne Gewähr für ihre Vollständigkeit oder Richtigkeit.
Kontakt: Rainer Krienke krienke@uni-koblenz.de . Meine Webseiten an der Uni Koblenz oder privat.
Version: $Revision: 0.78 $